Time;durP1;ratioP1;P1;durP2;ratioP2;P2;SDS_P1;SDS_P2;PMS_P1;PMS_P2;Temp;Humidity;BMP_temperature;BMP_pressure;BME280_temperature;BME280_humidity;BME280_pressure;Samples;Min_cycle;Max_cycle;Signal;HPM_P1;HPM_P2
2023/10/08 00:03:58;;;;;;;;;;;;;;;-144.32;100.00;68061.97;10332973;28;19993;-83
2023/10/08 00:09:07;;;;;;;;;;;;;;;-144.32;100.00;68061.97;10353193;28;19926;-83
2023/10/08 00:14:09;;;;;;;;;;;;;;;-144.32;100.00;68061.97;10338017;28;20514;-82
2023/10/08 00:19:14;;;;;;;;;;;;;;;-144.32;100.00;68061.97;10321400;28;19968;-81
2023/10/08 00:24:16;;;;;;;;;;;;;;;-144.32;100.00;68061.97;10318113;28;19925;-80
2023/10/08 00:29:21;;;;;;;;;;;;;;;-144.32;100.00;68061.97;10319811;28;19930;-80
2023/10/08 00:34:21;;;;;;;;;;;;;;;-144.32;100.00;68061.97;10278158;28;20734;-80
2023/10/08 00:39:22;;;;;;;;;;;;;;;-144.32;100.00;68061.97;10294504;28;19932;-80
2023/10/08 00:44:29;;;;;;;;;;;;;;;-144.32;100.00;68061.97;10294583;28;19925;-80
2023/10/08 00:49:54;;;;;;;;;;;;;;;-144.32;100.00;68061.97;10294445;28;20325;-81
2023/10/08 01:00:17;;;;;;;;;;;;;;;-144.32;100.00;68061.97;10317783;28;19926;-84
2023/10/08 01:05:21;;;;;;;;;;;;;;;-144.32;100.00;68061.97;10320953;28;19929;-79
2023/10/08 01:10:24;;;;;;;;;;;;;;;-144.32;100.00;68061.97;10314920;28;20130;-82
2023/10/08 01:15:28;;;;;;;;;;;;;;;-144.32;100.00;68061.97;10356451;28;19921;-80
2023/10/08 01:20:38;;;;;;;;;;;;;;;-144.32;100.00;68061.97;10336314;28;19937;-81
2023/10/08 01:25:40;;;;;;;;;;;;;;;-144.32;100.00;68061.97;10331459;28;20381;-79
2023/10/08 01:30:47;;;;;;;;;;;;;;;-144.32;100.00;68061.97;10314374;28;20088;-82
2023/10/08 01:35:50;;;;;;;;;;;;;;;-144.32;100.00;68061.97;10298937;28;19944;-81
2023/10/08 01:40:56;;;;;;;;;;;;;;;-144.32;100.00;68061.97;10327838;28;19996;-81
2023/10/08 01:45:56;;;;;;;;;;;;;;;-144.32;100.00;68061.97;10316756;28;20345;-81
2023/10/08 01:51:01;;;;;;;;;;;;;;;-144.32;100.00;68061.97;10304732;28;19925;-79
2023/10/08 01:56:04;;;;;;;;;;;;;;;-144.32;100.00;68061.97;10296675;28;19945;-81
2023/10/08 02:01:05;;;;;;;;;;;;;;;-144.32;100.00;68061.97;10315583;28;19926;-80
2023/10/08 02:06:08;;;;;;;;;;;;;;;-144.32;100.00;68061.97;10308991;28;19933;-78
2023/10/08 02:11:11;;;;;;;;;;;;;;;-144.32;100.00;68061.97;10294109;28;20038;-83
2023/10/08 02:16:12;;;;;;;;;;;;;;;-144.32;100.00;68061.97;10307525;28;19929;-83
2023/10/08 02:21:13;;;;;;;;;;;;;;;-144.32;100.00;68061.97;10294531;28;19933;-82
2023/10/08 02:26:14;;;;;;;;;;;;;;;-144.32;100.00;68061.97;10293154;28;19957;-81
2023/10/08 02:31:15;;;;;;;;;;;;;;;-144.32;100.00;68061.97;10338686;28;19926;-82
2023/10/08 02:36:15;;;;;;;;;;;;;;;-144.32;100.00;68061.97;10341427;28;19957;-79
2023/10/08 02:41:17;;;;;;;;;;;;;;;-144.32;100.00;68061.97;10314024;28;19972;-78
2023/10/08 02:46:18;;;;;;;;;;;;;;;-144.32;100.00;68061.97;10290215;28;19937;-79
2023/10/08 02:51:20;;;;;;;;;;;;;;;-144.32;100.00;68061.97;10291042;28;19935;-80
2023/10/08 02:56:22;;;;;;;;;;;;;;;-144.32;100.00;68061.97;10310682;28;20673;-81
2023/10/08 03:01:22;;;;;;;;;;;;;;;-144.32;100.00;68061.97;10317358;28;19922;-81
2023/10/08 03:06:23;;;;;;;;;;;;;;;-144.32;100.00;68061.97;10299418;28;19925;-82
2023/10/08 03:11:26;;;;;;;;;;;;;;;-144.32;100.00;68061.97;10295064;28;19968;-80
2023/10/08 03:16:33;;;;;;;;;;;;;;;-144.32;100.00;68061.97;10300990;28;19926;-82
2023/10/08 03:26:39;;;;;;;;;;;;;;;-144.32;100.00;68061.97;10306347;28;20025;-79
2023/10/08 03:36:49;;;;;;;;;;;;;;;-144.32;100.00;68061.97;10302878;28;19926;-80
2023/10/08 03:42:09;;;;;;;;;;;;;;;-144.32;100.00;68061.97;10309837;28;19930;-81
2023/10/08 03:47:10;;;;;;;;;;;;;;;-144.32;100.00;68061.97;10311201;28;20249;-81
2023/10/08 03:52:12;;;;;;;;;;;;;;;-144.32;100.00;68061.97;10299219;28;19926;-84
2023/10/08 03:57:18;;;;;;;;;;;;;;;-144.32;100.00;68061.97;10308861;28;19933;-79
2023/10/08 04:12:34;;;;;;;;;;;;;;;-144.32;100.00;68061.97;10269517;28;19942;-82
2023/10/08 04:17:43;;;;;;;;;;;;;;;-144.32;100.00;68061.97;10271794;28;19950;-82
2023/10/08 04:22:44;;;;;;;;;;;;;;;-144.32;100.00;68061.97;10296472;28;19922;-81
2023/10/08 04:27:49;;;;;;;;;;;;;;;-144.32;100.00;68061.97;10253813;28;19932;-80
2023/10/08 04:32:52;;;;;;;;;;;;;;;-144.32;100.00;68061.97;10246101;28;19926;-79
2023/10/08 04:37:53;;;;;;;;;;;;;;;-144.32;100.00;68061.97;10263456;28;19929;-79
2023/10/08 04:42:54;;;;;;;;;;;;;;;-144.32;100.00;68061.97;10262681;28;20305;-79
2023/10/08 04:47:58;;;;;;;;;;;;;;;-144.32;100.00;68061.97;10262460;28;20029;-79
2023/10/08 04:52:59;;;;;;;;;;;;;;;-144.32;100.00;68061.97;10258666;28;19976;-80
2023/10/08 04:58:00;;;;;;;;;;;;;;;-144.32;100.00;68061.97;10242112;28;19926;-80
2023/10/08 05:03:10;;;;;;;;;;;;;;;-144.32;100.00;68061.97;10262140;28;19928;-79
2023/10/08 05:08:28;;;;;;;;;;;;;;;-144.32;100.00;68061.97;10245272;28;19948;-80
2023/10/08 05:13:34;;;;;;;;;;;;;;;-144.32;100.00;68061.97;10260320;28;19933;-79
2023/10/08 05:19:06;;;;;;;;;;;;;;;-144.32;100.00;68061.97;10245220;28;20016;-82
2023/10/08 05:24:13;;;;;;;;;;;;;;;-144.32;100.00;68061.97;10290341;28;20000;-82
2023/10/08 05:34:50;;;;;;;;;;;;;;;-144.32;100.00;68061.97;10333640;28;20010;-78
2023/10/08 05:39:55;;;;;;;;;;;;;;;-144.32;100.00;68061.97;10311068;28;19926;-79
2023/10/08 05:55:26;;;;;;;;;;;;;;;-144.32;100.00;68061.97;10323625;28;20008;-81
2023/10/08 06:00:46;;;;;;;;;;;;;;;-144.32;100.00;68061.97;10302311;28;19933;-81
2023/10/08 06:06:02;;;;;;;;;;;;;;;-144.32;100.00;68061.97;10310506;28;19926;-79
2023/10/08 06:11:17;;;;;;;;;;;;;;;-144.32;100.00;68061.97;10312136;28;19928;-79
2023/10/08 06:16:31;;;;;;;;;;;;;;;-144.32;100.00;68061.97;10302271;28;19936;-80
2023/10/08 06:21:33;;;;;;;;;;;;;;;-144.32;100.00;68061.97;10315258;28;19937;-77
2023/10/08 06:26:48;;;;;;;;;;;;;;;-144.32;100.00;68061.97;10300524;28;20625;-83
2023/10/08 06:31:55;;;;;;;;;;;;;;;-144.32;100.00;68061.97;10309135;28;20024;-80
2023/10/08 06:36:57;;;;;;;;;;;;;;;-144.32;100.00;68061.97;10319681;28;19957;-82
2023/10/08 06:42:02;;;;;;;;;;;;;;;-144.32;100.00;68061.97;10291851;28;20451;-82
2023/10/08 06:47:09;;;;;;;;;;;;;;;-144.32;100.00;68061.97;10288876;28;20286;-82
2023/10/08 06:52:13;;;;;;;;;;;;;;;-144.32;100.00;68061.97;10286907;28;19926;-79
2023/10/08 06:57:14;;;;;;;;;;;;;;;-144.32;100.00;68061.97;10296047;28;20660;-79
2023/10/08 07:02:15;;;;;;;;;;;;;;;-144.32;100.00;68061.97;10307882;28;19957;-76
2023/10/08 07:07:18;;;;;;;;;;;;;;;-144.32;100.00;68061.97;10301343;28;20402;-76
2023/10/08 07:12:19;;;;;;;;;;;;;;;-144.32;100.00;68061.97;10289350;28;20437;-77
2023/10/08 07:17:19;;;;;;;;;;;;;;;-144.32;100.00;68061.97;10308760;28;19988;-78
2023/10/08 07:22:28;;;;;;;;;;;;;;;-144.32;100.00;68061.97;10305958;28;19929;-77
2023/10/08 07:27:31;;;;;;;;;;;;;;;-144.32;100.00;68061.97;10317318;28;21043;-78
2023/10/08 07:32:34;;;;;;;;;;;;;;;-144.32;100.00;68061.97;10335630;28;19930;-82
2023/10/08 07:37:35;;;;;;;;;;;;;;;-144.32;100.00;68061.97;10322429;28;19925;-80
2023/10/08 07:42:36;;;;;;;;;;;;;;;-144.32;100.00;68061.97;10308970;28;19930;-79
2023/10/08 07:47:37;;;;;;;;;;;;;;;-144.32;100.00;68061.97;10317150;28;19975;-79
2023/10/08 07:52:41;;;;;;;;;;;;;;;-144.32;100.00;68061.97;10322352;28;19926;-78
2023/10/08 07:57:54;;;;;;;;;;;;;;;-144.32;100.00;68061.97;10319777;28;19993;-89
2023/10/08 08:02:57;;;;;;;;;;;;;;;-144.32;100.00;68061.97;10359645;28;19925;-88
2023/10/08 08:08:22;;;;;;;;;;;;;;;-144.32;100.00;68061.97;10381484;28;19953;-87
2023/10/08 08:13:33;;;;;;;;;;;;;;;-144.32;100.00;68061.97;10384106;28;19929;-87
2023/10/08 08:18:35;;;;;;;;;;;;;;;-144.32;100.00;68061.97;10386809;23;20375;-79
2023/10/08 08:23:36;;;;;;;;;;;;;;;-144.32;100.00;68061.97;10206046;28;19930;-80
2023/10/08 08:28:37;;;;;;;;;;;;;;;-144.32;100.00;68061.97;10189334;29;19930;-76
2023/10/08 08:33:56;;;;;;;;;;;;;;;-144.32;100.00;68061.97;10206255;29;20023;-81
2023/10/08 08:38:57;;;;;;;;;;;;;;;-144.32;100.00;68061.97;10197551;29;20446;-80
2023/10/08 08:44:00;;;;;;;;;;;;;;;-144.32;100.00;68061.97;10200092;29;19927;-83
2023/10/08 08:49:11;;;;;;;;;;;;;;;-144.32;100.00;68061.97;10200237;29;19923;-84
2023/10/08 08:54:14;;;;;;;;;;;;;;;-144.32;100.00;68061.97;10177615;29;19965;-82
2023/10/08 08:59:17;;;;;;;;;;;;;;;-144.32;100.00;68061.97;10199006;29;20384;-80
2023/10/08 09:04:28;;;;;;;;;;;;;;;-144.32;100.00;68061.97;10192145;29;20480;-79
2023/10/08 09:09:32;;;;;;;;;;;;;;;-144.32;100.00;68061.97;10161630;29;20061;-81
2023/10/08 09:14:36;;;;;;;;;;;;;;;-144.32;100.00;68061.97;10178845;28;20018;-83
2023/10/08 09:19:37;;;;;;;;;;;;;;;-144.32;100.00;68061.97;10187071;29;19934;-84
2023/10/08 09:24:41;;;;;;;;;;;;;;;-144.32;100.00;68061.97;10191898;29;19929;-86
2023/10/08 09:29:44;;;;;;;;;;;;;;;-144.32;100.00;68061.97;10190596;29;19927;-82
2023/10/08 09:34:44;;;;;;;;;;;;;;;-144.32;100.00;68061.97;10199968;29;20032;-79
2023/10/08 09:39:45;;;;;;;;;;;;;;;-144.32;100.00;68061.97;10182957;29;19971;-81
2023/10/08 09:44:47;;;;;;;;;;;;;;;-144.32;100.00;68061.97;10160630;29;19982;-85
2023/10/08 09:50:01;;;;;;;;;;;;;;;-144.32;100.00;68061.97;10177440;29;19982;-82
2023/10/08 09:55:10;;;;;;;;;;;;;;;-144.32;100.00;68061.97;10174496;29;19934;-83
2023/10/08 10:00:14;;;;;;;;;;;;;;;-144.32;100.00;68061.97;10183232;29;19927;-83
2023/10/08 10:05:24;;;;;;;;;;;;;;;-144.32;100.00;68061.97;10177903;29;20253;-81
2023/10/08 10:10:31;;;;;;;;;;;;;;;-144.32;100.00;68061.97;10183668;29;19966;-82
2023/10/08 10:15:34;;;;;;;;;;;;;;;-144.32;100.00;68061.97;10195018;29;19926;-86
2023/10/08 10:20:38;;;;;;;;;;;;;;;-144.32;100.00;68061.97;10180028;29;19930;-82
2023/10/08 10:25:43;;;;;;;;;;;;;;;-144.32;100.00;68061.97;10184215;29;19927;-79
2023/10/08 10:30:45;;;;;;;;;;;;;;;-144.32;100.00;68061.97;10203529;29;20014;-82
2023/10/08 10:35:50;;;;;;;;;;;;;;;-144.32;100.00;68061.97;10174719;29;19922;-80
2023/10/08 10:40:57;;;;;;;;;;;;;;;-144.32;100.00;68061.97;10174287;28;19962;-80
2023/10/08 10:46:05;;;;;;;;;;;;;;;-144.32;100.00;68061.97;10222052;29;19933;-83
2023/10/08 10:56:09;;;;;;;;;;;;;;;-144.32;100.00;68061.97;10199807;29;19927;-82
2023/10/08 11:01:46;;;;;;;;;;;;;;;-144.32;100.00;68061.97;10187517;28;19927;-80
2023/10/08 11:06:37;;;;;;;;;;;;;;;-144.32;100.00;68061.97;10198210;29;19957;-77
2023/10/08 11:11:43;;;;;;;;;;;;;;;-144.32;100.00;68061.97;10186221;29;19926;-77
2023/10/08 11:16:44;;;;;;;;;;;;;;;-144.32;100.00;68061.97;10194737;29;20035;-78
2023/10/08 11:21:50;;;;;;;;;;;;;;;-144.32;100.00;68061.97;10192793;29;20066;-81
2023/10/08 11:27:01;;;;;;;;;;;;;;;-144.32;100.00;68061.97;10204332;29;19941;-85
2023/10/08 11:32:02;;;;;;;;;;;;;;;-144.32;100.00;68061.97;10198679;28;19950;-83
2023/10/08 11:37:07;;;;;;;;;;;;;;;-144.32;100.00;68061.97;10192960;29;19922;-78
2023/10/08 11:42:25;;;;;;;;;;;;;;;-144.32;100.00;68061.97;10184247;28;20325;-81
2023/10/08 11:47:31;;;;;;;;;;;;;;;-144.32;100.00;68061.97;10197578;29;19930;-80
2023/10/08 11:52:35;;;;;;;;;;;;;;;-144.32;100.00;68061.97;10191347;28;20016;-81
2023/10/08 11:57:36;;;;;;;;;;;;;;;-144.32;100.00;68061.97;10197153;29;20026;-80
2023/10/08 12:02:38;;;;;;;;;;;;;;;-144.32;100.00;68061.97;10176401;29;20392;-79
2023/10/08 12:07:39;;;;;;;;;;;;;;;-144.32;100.00;68061.97;10170204;29;20009;-81
2023/10/08 12:12:40;;;;;;;;;;;;;;;-144.32;100.00;68061.97;10171154;28;19926;-81
2023/10/08 12:17:40;;;;;;;;;;;;;;;-144.32;100.00;68061.97;10204004;29;19927;-78
2023/10/08 12:22:41;;;;;;;;;;;;;;;-144.32;100.00;68061.97;10217606;29;19927;-80
2023/10/08 12:27:41;;;;;;;;;;;;;;;-144.32;100.00;68061.97;10195651;29;19926;-82
2023/10/08 12:32:44;;;;;;;;;;;;;;;-144.32;100.00;68061.97;10169867;29;19922;-81
2023/10/08 12:37:44;;;;;;;;;;;;;;;-144.32;100.00;68061.97;10192625;29;20017;-81
2023/10/08 12:42:44;;;;;;;;;;;;;;;-144.32;100.00;68061.97;10165268;29;19927;-79
2023/10/08 12:47:46;;;;;;;;;;;;;;;-144.32;100.00;68061.97;10190577;29;19977;-80
2023/10/08 12:52:55;;;;;;;;;;;;;;;-144.32;100.00;68061.97;10194795;29;20017;-81
2023/10/08 12:57:55;;;;;;;;;;;;;;;-144.32;100.00;68061.97;10191049;29;19973;-79
2023/10/08 13:02:57;;;;;;;;;;;;;;;-144.32;100.00;68061.97;10192660;29;20368;-80
2023/10/08 13:08:03;;;;;;;;;;;;;;;-144.32;100.00;68061.97;10203953;29;19934;-79
2023/10/08 13:13:03;;;;;;;;;;;;;;;-144.32;100.00;68061.97;10204631;29;19930;-80
2023/10/08 13:18:04;;;;;;;;;;;;;;;-144.32;100.00;68061.97;10207036;29;19927;-79
2023/10/08 13:23:05;;;;;;;;;;;;;;;-144.32;100.00;68061.97;10193813;29;20666;-79
2023/10/08 13:28:09;;;;;;;;;;;;;;;-144.32;100.00;68061.97;10185613;29;20440;-82
2023/10/08 13:33:10;;;;;;;;;;;;;;;-144.32;100.00;68061.97;10202915;29;19923;-80
2023/10/08 13:38:13;;;;;;;;;;;;;;;-144.32;100.00;68061.97;10197762;29;19926;-80
2023/10/08 13:43:13;;;;;;;;;;;;;;;-144.32;100.00;68061.97;10197411;29;19927;-79
2023/10/08 13:48:18;;;;;;;;;;;;;;;-144.32;100.00;68061.97;10182920;29;19927;-81
2023/10/08 13:53:20;;;;;;;;;;;;;;;-144.32;100.00;68061.97;10193116;29;20013;-81
2023/10/08 13:58:22;;;;;;;;;;;;;;;-144.32;100.00;68061.97;10213436;29;20030;-80
2023/10/08 14:03:31;;;;;;;;;;;;;;;-144.32;100.00;68061.97;10176965;29;19938;-81
2023/10/08 14:08:51;;;;;;;;;;;;;;;-144.32;100.00;68061.97;10191120;28;19926;-80
2023/10/08 14:20:06;;;;;;;;;;;;;;;-144.32;100.00;68061.97;10259707;28;20733;-80
2023/10/08 14:25:11;;;;;;;;;;;;;;;-144.32;100.00;68061.97;10209102;28;19931;-83
2023/10/08 14:30:15;;;;;;;;;;;;;;;-144.32;100.00;68061.97;10210076;28;19926;-78
2023/10/08 14:45:54;;;;;;;;;;;;;;;-144.32;100.00;68061.97;10210296;28;19938;-83
2023/10/08 14:50:56;;;;;;;;;;;;;;;-144.32;100.00;68061.97;10210261;28;19934;-80
2023/10/08 14:55:57;;;;;;;;;;;;;;;-144.32;100.00;68061.97;10189985;28;19932;-78
2023/10/08 15:00:58;;;;;;;;;;;;;;;-144.32;100.00;68061.97;10194651;28;19952;-80
2023/10/08 15:05:59;;;;;;;;;;;;;;;-144.32;100.00;68061.97;10212180;28;20419;-80
2023/10/08 15:11:00;;;;;;;;;;;;;;;-144.32;100.00;68061.97;10214366;28;19934;-83
2023/10/08 15:16:04;;;;;;;;;;;;;;;-144.32;100.00;68061.97;10223472;28;19961;-80
2023/10/08 15:21:07;;;;;;;;;;;;;;;-144.32;100.00;68061.97;10195739;28;19933;-80
2023/10/08 15:26:07;;;;;;;;;;;;;;;-144.32;100.00;68061.97;10233871;28;19930;-83
2023/10/08 15:31:08;;;;;;;;;;;;;;;-144.32;100.00;68061.97;10206669;28;19923;-81
2023/10/08 15:36:10;;;;;;;;;;;;;;;-144.32;100.00;68061.97;10215501;28;19932;-79
2023/10/08 15:41:11;;;;;;;;;;;;;;;-144.32;100.00;68061.97;10194718;28;20029;-84
2023/10/08 15:46:11;;;;;;;;;;;;;;;-144.32;100.00;68061.97;10200463;28;19951;-81
2023/10/08 15:51:12;;;;;;;;;;;;;;;-144.32;100.00;68061.97;10191686;28;19933;-81
2023/10/08 15:56:13;;;;;;;;;;;;;;;-144.32;100.00;68061.97;10216503;28;20654;-81
2023/10/08 16:01:14;;;;;;;;;;;;;;;-144.32;100.00;68061.97;10198905;28;19926;-79
2023/10/08 16:06:14;;;;;;;;;;;;;;;-144.32;100.00;68061.97;10209998;28;19937;-83
2023/10/08 16:11:15;;;;;;;;;;;;;;;-144.32;100.00;68061.97;10211061;28;20623;-80
2023/10/08 16:16:16;;;;;;;;;;;;;;;-144.32;100.00;68061.97;10250729;28;19925;-79
2023/10/08 16:21:20;;;;;;;;;;;;;;;-144.32;100.00;68061.97;10281837;28;21330;-79
2023/10/08 16:26:21;;;;;;;;;;;;;;;-144.32;100.00;68061.97;10271719;28;20044;-81
2023/10/08 16:31:22;;;;;;;;;;;;;;;-144.32;100.00;68061.97;10241265;28;19925;-80
2023/10/08 16:36:28;;;;;;;;;;;;;;;-144.32;100.00;68061.97;10258434;28;20012;-81
2023/10/08 16:41:29;;;;;;;;;;;;;;;-144.32;100.00;68061.97;10223209;28;20017;-82
2023/10/08 16:46:29;;;;;;;;;;;;;;;-144.32;100.00;68061.97;10251500;28;19919;-84
2023/10/08 16:51:30;;;;;;;;;;;;;;;-144.32;100.00;68061.97;10275549;28;19990;-82
2023/10/08 16:56:33;;;;;;;;;;;;;;;-144.32;100.00;68061.97;10258924;28;19946;-85
2023/10/08 17:01:35;;;;;;;;;;;;;;;-144.32;100.00;68061.97;10262838;28;20440;-83
2023/10/08 17:06:36;;;;;;;;;;;;;;;-144.32;100.00;68061.97;10236887;28;19954;-83
2023/10/08 17:11:40;;;;;;;;;;;;;;;-144.32;100.00;68061.97;10253583;28;19949;-82
2023/10/08 17:16:41;;;;;;;;;;;;;;;-144.32;100.00;68061.97;10264049;28;19926;-86
2023/10/08 17:21:43;;;;;;;;;;;;;;;-144.32;100.00;68061.97;10255906;28;19926;-82
2023/10/08 17:26:43;;;;;;;;;;;;;;;-144.32;100.00;68061.97;10247505;28;19922;-82
2023/10/08 17:31:46;;;;;;;;;;;;;;;-144.32;100.00;68061.97;10195707;28;19933;-81
2023/10/08 17:36:48;;;;;;;;;;;;;;;-144.32;100.00;68061.97;10215927;28;19981;-79
2023/10/08 17:41:49;;;;;;;;;;;;;;;-144.32;100.00;68061.97;10220826;28;19958;-81
2023/10/08 17:46:49;;;;;;;;;;;;;;;-144.32;100.00;68061.97;10224664;28;20431;-83
2023/10/08 17:51:50;;;;;;;;;;;;;;;-144.32;100.00;68061.97;10221646;28;19942;-82
2023/10/08 17:56:51;;;;;;;;;;;;;;;-144.32;100.00;68061.97;10198070;28;20462;-80
2023/10/08 18:01:56;;;;;;;;;;;;;;;-144.32;100.00;68061.97;10225799;28;19926;-81
2023/10/08 18:06:57;;;;;;;;;;;;;;;-144.32;100.00;68061.97;10197241;28;19933;-84
2023/10/08 18:12:00;;;;;;;;;;;;;;;-144.32;100.00;68061.97;10215548;28;19933;-80
2023/10/08 18:17:01;;;;;;;;;;;;;;;-144.32;100.00;68061.97;10204309;28;19926;-81
2023/10/08 18:22:03;;;;;;;;;;;;;;;-144.32;100.00;68061.97;10209223;28;19926;-81
2023/10/08 18:27:07;;;;;;;;;;;;;;;-144.32;100.00;68061.97;10225084;28;19941;-82
2023/10/08 18:32:08;;;;;;;;;;;;;;;-144.32;100.00;68061.97;10204622;28;19923;-83
2023/10/08 18:37:09;;;;;;;;;;;;;;;-144.32;100.00;68061.97;10223465;28;19982;-79
2023/10/08 18:42:09;;;;;;;;;;;;;;;-144.32;100.00;68061.97;10215573;28;19933;-85
2023/10/08 18:47:10;;;;;;;;;;;;;;;-144.32;100.00;68061.97;10226133;28;19934;-81
2023/10/08 18:52:11;;;;;;;;;;;;;;;-144.32;100.00;68061.97;10213082;28;19926;-79
2023/10/08 18:57:12;;;;;;;;;;;;;;;-144.32;100.00;68061.97;10211529;28;19927;-79
2023/10/08 19:02:13;;;;;;;;;;;;;;;-144.32;100.00;68061.97;10206740;28;19927;-82
2023/10/08 19:07:14;;;;;;;;;;;;;;;-144.32;100.00;68061.97;10220079;28;19949;-79
2023/10/08 19:12:17;;;;;;;;;;;;;;;-144.32;100.00;68061.97;10181943;28;19926;-83
2023/10/08 19:17:18;;;;;;;;;;;;;;;-144.32;100.00;68061.97;10225205;28;20443;-81
2023/10/08 19:22:21;;;;;;;;;;;;;;;-144.32;100.00;68061.97;10211298;28;19950;-79
2023/10/08 19:27:25;;;;;;;;;;;;;;;-144.32;100.00;68061.97;10218724;28;19927;-82
2023/10/08 19:32:28;;;;;;;;;;;;;;;-144.32;100.00;68061.97;10217746;28;19937;-82
2023/10/08 19:37:29;;;;;;;;;;;;;;;-144.32;100.00;68061.97;10213954;28;20024;-79
2023/10/08 19:42:29;;;;;;;;;;;;;;;-144.32;100.00;68061.97;10232054;28;19941;-79
2023/10/08 19:47:31;;;;;;;;;;;;;;;-144.32;100.00;68061.97;10283034;28;20269;-81
2023/10/08 19:52:34;;;;;;;;;;;;;;;-144.32;100.00;68061.97;10275629;28;19933;-79
2023/10/08 19:57:38;;;;;;;;;;;;;;;-144.32;100.00;68061.97;10295620;28;19926;-83
2023/10/08 20:02:44;;;;;;;;;;;;;;;-144.32;100.00;68061.97;10297068;28;19922;-81
2023/10/08 20:07:47;;;;;;;;;;;;;;;-144.32;100.00;68061.97;10319306;28;20076;-84
2023/10/08 20:12:49;;;;;;;;;;;;;;;-144.32;100.00;68061.97;10299133;28;19933;-82
2023/10/08 20:17:50;;;;;;;;;;;;;;;-144.32;100.00;68061.97;10285915;28;19927;-84
2023/10/08 20:22:52;;;;;;;;;;;;;;;-144.32;100.00;68061.97;10273986;28;19929;-85
2023/10/08 20:27:57;;;;;;;;;;;;;;;-144.32;100.00;68061.97;10262266;28;19925;-83
2023/10/08 20:32:59;;;;;;;;;;;;;;;-144.32;100.00;68061.97;10250399;28;20121;-83
2023/10/08 20:38:03;;;;;;;;;;;;;;;-144.32;100.00;68061.97;10337289;28;19910;-83
2023/10/08 20:43:05;;;;;;;;;;;;;;;-144.32;100.00;68061.97;10336919;28;19960;-81
2023/10/08 20:48:06;;;;;;;;;;;;;;;-144.32;100.00;68061.97;10280096;28;19922;-81
2023/10/08 20:53:10;;;;;;;;;;;;;;;-144.32;100.00;68061.97;10251447;28;20447;-82
2023/10/08 20:58:10;;;;;;;;;;;;;;;-144.32;100.00;68061.97;10258675;28;19930;-79
2023/10/08 21:03:11;;;;;;;;;;;;;;;-144.32;100.00;68061.97;10249754;28;19926;-79
2023/10/08 21:08:12;;;;;;;;;;;;;;;-144.32;100.00;68061.97;10290048;28;19925;-79
2023/10/08 21:13:12;;;;;;;;;;;;;;;-144.32;100.00;68061.97;10283696;28;20573;-80
2023/10/08 21:18:13;;;;;;;;;;;;;;;-144.32;100.00;68061.97;10258361;28;19926;-80
2023/10/08 21:23:14;;;;;;;;;;;;;;;-144.32;100.00;68061.97;10273025;28;19926;-78
2023/10/08 21:28:15;;;;;;;;;;;;;;;-144.32;100.00;68061.97;10267582;28;19964;-78
2023/10/08 21:33:15;;;;;;;;;;;;;;;-144.32;100.00;68061.97;10273489;28;19932;-78
2023/10/08 21:38:15;;;;;;;;;;;;;;;-144.32;100.00;68061.97;10274548;28;20041;-86
2023/10/08 21:43:16;;;;;;;;;;;;;;;-144.32;100.00;68061.97;10266539;28;20051;-82
2023/10/08 21:48:17;;;;;;;;;;;;;;;-144.32;100.00;68061.97;10285009;28;20016;-85
2023/10/08 21:53:18;;;;;;;;;;;;;;;-144.32;100.00;68061.97;10251761;28;19938;-79
2023/10/08 21:58:18;;;;;;;;;;;;;;;-144.32;100.00;68061.97;10261696;28;20282;-80
2023/10/08 22:03:19;;;;;;;;;;;;;;;-144.32;100.00;68061.97;10267371;28;19933;-82
2023/10/08 22:08:22;;;;;;;;;;;;;;;-144.32;100.00;68061.97;10241999;28;19929;-79
2023/10/08 22:13:23;;;;;;;;;;;;;;;-144.32;100.00;68061.97;10269625;28;19980;-81
2023/10/08 22:18:28;;;;;;;;;;;;;;;-144.32;100.00;68061.97;10267429;28;20307;-78
2023/10/08 22:23:28;;;;;;;;;;;;;;;-144.32;100.00;68061.97;10258725;28;19927;-77
2023/10/08 22:28:29;;;;;;;;;;;;;;;-144.32;100.00;68061.97;10303188;28;19917;-82
2023/10/08 22:33:39;;;;;;;;;;;;;;;-144.32;100.00;68061.97;10295083;28;19932;-78
2023/10/08 22:38:40;;;;;;;;;;;;;;;-144.32;100.00;68061.97;10259842;28;20008;-78
2023/10/08 22:43:42;;;;;;;;;;;;;;;-144.32;100.00;68061.97;10258972;28;19926;-79
2023/10/08 22:48:43;;;;;;;;;;;;;;;-144.32;100.00;68061.97;10249226;28;19988;-78
2023/10/08 22:53:43;;;;;;;;;;;;;;;-144.32;100.00;68061.97;10255645;28;19926;-79
2023/10/08 22:58:44;;;;;;;;;;;;;;;-144.32;100.00;68061.97;10257260;28;19972;-79
2023/10/08 23:03:50;;;;;;;;;;;;;;;-144.32;100.00;68061.97;10270810;28;19980;-79
2023/10/08 23:08:51;;;;;;;;;;;;;;;-144.32;100.00;68061.97;10248432;28;19925;-80
2023/10/08 23:13:52;;;;;;;;;;;;;;;-144.32;100.00;68061.97;10284665;28;20405;-81
2023/10/08 23:18:54;;;;;;;;;;;;;;;-144.32;100.00;68061.97;10274668;28;19955;-80
2023/10/08 23:23:56;;;;;;;;;;;;;;;-144.32;100.00;68061.97;10278724;28;19926;-82
2023/10/08 23:28:57;;;;;;;;;;;;;;;-144.32;100.00;68061.97;10280896;28;19937;-82
2023/10/08 23:34:00;;;;;;;;;;;;;;;-144.32;100.00;68061.97;10270709;28;19930;-83
2023/10/08 23:39:16;;;;;;;;;;;;;;;-144.32;100.00;68061.97;10268729;28;20379;-82
2023/10/08 23:44:26;;;;;;;;;;;;;;;-144.32;100.00;68061.97;10240477;28;19930;-78
2023/10/08 23:49:28;;;;;;;;;;;;;;;-144.32;100.00;68061.97;10258192;28;19946;-79
2023/10/08 23:54:33;;;;;;;;;;;;;;;-144.32;100.00;68061.97;10250090;28;19926;-78
2023/10/08 23:59:42;;;;;;;;;;;;;;;-144.32;100.00;68061.97;10263170;28;19926;-78
